createdAt,value
2022-11-12T00:01:42.354Z,7.04
2022-11-12T00:04:11.881Z,7.00
2022-11-12T00:06:41.269Z,7.03
2022-11-12T00:09:10.039Z,6.92
2022-11-12T00:11:41.417Z,6.92
2022-11-12T00:14:10.943Z,6.99
2022-11-12T00:16:40.071Z,7.08
2022-11-12T00:19:08.851Z,7.01
2022-11-12T00:21:38.034Z,7.01
2022-11-12T00:24:08.053Z,7.17
2022-11-12T00:26:36.958Z,7.09
2022-11-12T00:29:06.260Z,7.09
2022-11-12T00:31:35.076Z,7.16
2022-11-12T00:34:03.913Z,7.19
2022-11-12T00:36:33.110Z,7.29
2022-11-12T00:39:01.858Z,7.18
2022-11-12T00:41:31.075Z,7.26
2022-11-12T00:44:00.421Z,7.21
2022-11-12T00:46:29.234Z,7.29
2022-11-12T00:48:57.191Z,7.34
2022-11-12T00:51:28.733Z,7.36
2022-11-12T00:53:56.863Z,7.35
2022-11-12T00:56:25.731Z,7.34
2022-11-12T00:58:54.564Z,7.42
2022-11-12T01:01:23.315Z,7.43
2022-11-12T01:03:52.226Z,7.41
2022-11-12T01:06:23.139Z,7.36
2022-11-12T01:08:52.415Z,7.49
2022-11-12T01:11:29.990Z,7.54
2022-11-12T01:14:03.498Z,7.56
2022-11-12T01:16:38.019Z,7.54
2022-11-12T01:19:11.786Z,7.44
2022-11-12T01:21:43.540Z,7.48
2022-11-12T01:24:13.105Z,7.36
2022-11-12T01:26:42.041Z,7.40
2022-11-12T01:29:11.684Z,7.34
2022-11-12T01:31:40.205Z,7.37
2022-11-12T01:34:10.714Z,7.51
2022-11-12T01:36:40.883Z,7.61
2022-11-12T01:39:10.330Z,7.46
2022-11-12T01:41:41.213Z,7.52
2022-11-12T01:44:25.319Z,7.55
2022-11-12T01:47:13.062Z,7.59
2022-11-12T01:50:15.636Z,7.65
2022-11-12T01:53:08.853Z,7.72
2022-11-12T01:55:39.214Z,7.65
2022-11-12T01:58:14.927Z,7.64
2022-11-12T02:00:44.245Z,7.58
2022-11-12T02:03:21.969Z,7.65
2022-11-12T02:06:05.441Z,7.79
2022-11-12T02:08:35.312Z,7.85
2022-11-12T02:11:18.760Z,7.89
2022-11-12T02:13:58.397Z,7.73
2022-11-12T02:16:46.777Z,7.73
2022-11-12T02:19:17.255Z,7.71
2022-11-12T02:21:48.490Z,7.71
2022-11-12T02:24:19.451Z,7.64
2022-11-12T02:26:51.696Z,7.70
2022-11-12T02:29:21.143Z,7.85
2022-11-12T02:31:48.859Z,7.92
2022-11-12T02:34:21.303Z,7.74
2022-11-12T02:36:48.882Z,7.71
2022-11-12T02:39:18.038Z,7.73
2022-11-12T02:41:47.652Z,7.69
2022-11-12T02:44:15.954Z,7.78
2022-11-12T02:46:46.109Z,7.76
2022-11-12T02:49:14.048Z,7.73
2022-11-12T02:51:43.325Z,7.79
2022-11-12T02:54:11.838Z,7.88
2022-11-12T02:56:41.940Z,7.95
2022-11-12T02:59:10.739Z,7.85
2022-11-12T03:01:39.596Z,7.72
2022-11-12T03:04:08.773Z,7.77
2022-11-12T03:06:40.252Z,7.82
2022-11-12T03:09:12.280Z,7.80
2022-11-12T03:11:41.985Z,7.80
2022-11-12T03:14:11.775Z,7.71
2022-11-12T03:16:39.853Z,7.84
2022-11-12T03:19:09.919Z,7.82
2022-11-12T03:21:40.149Z,7.85
2022-11-12T03:24:08.956Z,7.91
2022-11-12T03:26:38.055Z,7.94
2022-11-12T03:29:06.036Z,7.82
2022-11-12T03:31:35.964Z,7.86
2022-11-12T03:34:05.350Z,7.89
2022-11-12T03:36:34.032Z,7.84
2022-11-12T03:39:01.941Z,7.82
2022-11-12T03:41:31.904Z,7.85
2022-11-12T03:43:59.995Z,7.91
2022-11-12T03:46:28.953Z,7.86
2022-11-12T03:48:59.422Z,7.98
2022-11-12T03:51:27.986Z,8.02
2022-11-12T03:53:57.295Z,7.95
2022-11-12T03:56:25.966Z,8.01
2022-11-12T03:58:55.669Z,8.09
2022-11-12T04:01:25.005Z,7.96
2022-11-12T04:03:54.532Z,8.01
2022-11-12T04:06:42.813Z,7.97
2022-11-12T04:09:11.914Z,7.98
2022-11-12T04:11:39.886Z,8.05
2022-11-12T04:14:08.487Z,7.93
2022-11-12T04:16:55.417Z,7.99
2022-11-12T04:19:44.531Z,7.87
2022-11-12T04:22:13.816Z,7.80
2022-11-12T04:25:02.533Z,7.90
2022-11-12T04:27:37.134Z,7.98
2022-11-12T04:30:19.269Z,7.93
2022-11-12T04:32:55.621Z,7.85
2022-11-12T04:35:26.833Z,7.93
2022-11-12T04:37:56.879Z,7.93
2022-11-12T04:40:46.988Z,7.88
2022-11-12T04:43:37.484Z,7.94
2022-11-12T04:46:06.195Z,7.94
2022-11-12T04:48:35.732Z,8.01
2022-11-12T04:51:29.395Z,8.00
2022-11-12T04:53:58.183Z,8.03
2022-11-12T04:56:25.847Z,7.94
2022-11-12T04:58:53.892Z,7.97
2022-11-12T05:01:23.160Z,8.02
2022-11-12T05:03:51.883Z,8.04
2022-11-12T05:06:41.811Z,8.01
2022-11-12T05:09:10.010Z,8.05
2022-11-12T05:11:38.884Z,8.13
2022-11-12T05:14:07.182Z,8.11
2022-11-12T05:16:39.612Z,8.09
2022-11-12T05:19:07.931Z,8.11
2022-11-12T05:21:57.060Z,8.11
2022-11-12T05:24:41.155Z,8.22
2022-11-12T05:27:19.784Z,8.17
2022-11-12T05:29:47.974Z,8.15
2022-11-12T05:32:18.646Z,8.14
2022-11-12T05:34:47.043Z,8.18
2022-11-12T05:37:16.103Z,8.16
2022-11-12T05:39:44.965Z,8.25
2022-11-12T05:42:14.684Z,8.36
2022-11-12T05:44:43.934Z,8.34
2022-11-12T05:47:15.615Z,8.31
2022-11-12T05:49:46.766Z,8.30
2022-11-12T05:52:14.941Z,8.29
2022-11-12T05:54:44.619Z,8.22
2022-11-12T05:57:13.271Z,8.26
2022-11-12T05:59:44.893Z,8.21
2022-11-12T06:02:14.710Z,8.21
2022-11-12T06:04:43.924Z,8.27
2022-11-12T06:07:13.934Z,8.26
2022-11-12T06:09:44.006Z,8.25
2022-11-12T06:12:13.366Z,8.38
2022-11-12T06:14:44.849Z,8.38
2022-11-12T06:17:13.899Z,8.34
2022-11-12T06:19:41.841Z,8.41
2022-11-12T06:22:11.476Z,8.39
2022-11-12T06:24:40.982Z,8.49
2022-11-12T06:27:09.055Z,8.50
2022-11-12T06:29:39.901Z,8.58
2022-11-12T06:32:08.365Z,8.56
2022-11-12T06:34:37.088Z,8.67
2022-11-12T06:37:06.479Z,8.62
2022-11-12T06:39:35.946Z,8.78
2022-11-12T06:42:05.705Z,8.67
2022-11-12T06:44:35.608Z,8.76
2022-11-12T06:47:03.948Z,8.79
2022-11-12T06:49:34.778Z,8.92
2022-11-12T06:52:03.119Z,8.91
2022-11-12T06:54:36.076Z,8.90
2022-11-12T06:57:05.189Z,8.84
2022-11-12T06:59:35.083Z,8.78
2022-11-12T07:02:04.722Z,8.78
2022-11-12T07:04:32.982Z,8.84
2022-11-12T07:07:01.852Z,8.86
2022-11-12T07:09:32.279Z,8.80
2022-11-12T07:12:00.969Z,8.87
2022-11-12T07:14:30.131Z,8.89
2022-11-12T07:16:59.183Z,8.99
2022-11-12T07:19:27.907Z,8.89
2022-11-12T07:21:56.909Z,8.99
2022-11-12T07:24:25.916Z,9.02
2022-11-12T07:26:53.817Z,8.95
2022-11-12T07:29:42.741Z,9.01
2022-11-12T07:32:11.619Z,9.02
2022-11-12T07:34:40.040Z,9.10
2022-11-12T07:37:10.025Z,9.03
2022-11-12T07:39:38.857Z,9.14
2022-11-12T07:42:08.071Z,9.21
2022-11-12T07:44:40.201Z,9.32
2022-11-12T07:47:07.988Z,9.40
2022-11-12T07:49:37.289Z,9.42
2022-11-12T07:52:05.918Z,9.45
2022-11-12T07:54:35.008Z,9.37
2022-11-12T07:57:04.114Z,9.47
2022-11-12T07:59:31.855Z,9.68
2022-11-12T08:02:00.718Z,9.67
2022-11-12T08:04:28.950Z,9.80
2022-11-12T08:06:58.247Z,9.88
2022-11-12T08:09:26.785Z,9.85
2022-11-12T08:11:55.731Z,10.06
2022-11-12T08:14:24.963Z,10.16
2022-11-12T08:16:55.099Z,10.25
2022-11-12T08:19:23.939Z,10.35
2022-11-12T08:21:56.955Z,10.44
2022-11-12T08:24:24.876Z,10.55
2022-11-12T08:26:55.890Z,10.56
2022-11-12T08:29:25.141Z,10.67
2022-11-12T08:31:53.803Z,10.80
2022-11-12T08:34:23.151Z,10.86
2022-11-12T08:36:51.945Z,10.95
2022-11-12T08:39:20.950Z,11.19
2022-11-12T08:41:49.788Z,11.16
2022-11-12T08:44:18.006Z,11.16
2022-11-12T08:46:46.658Z,11.26
2022-11-12T08:49:14.896Z,11.46
2022-11-12T08:51:46.124Z,11.75
2022-11-12T08:54:13.861Z,12.04
2022-11-12T08:56:42.770Z,12.21
2022-11-12T08:59:12.010Z,12.32
2022-11-12T09:01:39.883Z,12.51
2022-11-12T09:04:08.808Z,12.68
2022-11-12T09:06:38.194Z,12.82
2022-11-12T09:09:07.472Z,12.90
2022-11-12T09:11:35.843Z,12.79
2022-11-12T09:14:10.042Z,13.19
2022-11-12T09:16:40.868Z,13.19
2022-11-12T09:19:09.755Z,13.21
2022-11-12T09:21:37.846Z,13.35
2022-11-12T09:24:05.684Z,13.35
2022-11-12T09:26:34.797Z,13.32
2022-11-12T09:29:03.884Z,13.32
2022-11-12T09:31:34.804Z,13.39
2022-11-12T09:34:05.105Z,13.30
2022-11-12T09:36:38.639Z,13.23
2022-11-12T09:39:08.875Z,12.99
2022-11-12T09:41:40.355Z,12.78
2022-11-12T09:44:11.831Z,12.68
2022-11-12T09:46:51.291Z,12.85
2022-11-12T09:49:36.313Z,13.04
2022-11-12T09:52:28.461Z,13.14
2022-11-12T09:55:17.513Z,13.16
2022-11-12T09:57:46.817Z,13.23
2022-11-12T10:00:21.127Z,13.15
2022-11-12T10:03:07.356Z,13.08
2022-11-12T10:05:48.596Z,13.07
2022-11-12T10:08:44.578Z,13.20
2022-11-12T10:12:02.875Z,13.07
2022-11-12T10:14:53.490Z,13.14
2022-11-12T10:17:44.355Z,13.18
2022-11-12T10:20:47.598Z,13.03
2022-11-12T10:23:20.667Z,12.99
2022-11-12T10:25:51.698Z,13.05
2022-11-12T10:28:22.592Z,12.75
2022-11-12T10:30:57.708Z,12.67
2022-11-12T10:33:32.265Z,12.60
2022-11-12T10:36:38.822Z,12.58
2022-11-12T10:39:10.634Z,12.24
2022-11-12T10:41:41.676Z,12.09
2022-11-12T10:44:20.282Z,12.16
2022-11-12T10:46:51.933Z,12.35
2022-11-12T10:49:21.046Z,12.36
2022-11-12T10:52:08.575Z,12.48
2022-11-12T10:54:44.700Z,12.86
2022-11-12T10:57:26.022Z,13.25
2022-11-12T11:00:15.247Z,13.19
2022-11-12T11:02:59.879Z,13.27
2022-11-12T11:06:01.624Z,13.09
2022-11-12T11:08:39.972Z,13.36
2022-11-12T11:11:35.482Z,13.33
2022-11-12T11:14:36.952Z,13.57
2022-11-12T11:17:19.357Z,13.55
2022-11-12T11:19:50.257Z,13.65
2022-11-12T11:22:41.920Z,13.44
2022-11-12T11:25:30.136Z,13.31
2022-11-12T11:28:39.837Z,13.67
2022-11-12T11:35:10.054Z,13.77
2022-11-12T11:38:13.764Z,13.63
2022-11-12T11:44:38.028Z,13.38
2022-11-12T11:47:23.684Z,13.57
2022-11-12T11:53:35.226Z,13.53
2022-11-12T11:56:21.835Z,12.51
2022-11-12T11:59:13.927Z,12.13
2022-11-12T12:02:11.497Z,11.97
2022-11-12T12:05:21.028Z,11.91
2022-11-12T12:08:11.795Z,12.08
2022-11-12T12:11:08.997Z,12.11
2022-11-12T12:14:33.706Z,11.94
2022-11-12T12:17:19.039Z,12.06
2022-11-12T12:20:02.018Z,11.83
2022-11-12T12:22:40.848Z,11.76
2022-11-12T12:25:18.793Z,11.74
2022-11-12T12:27:58.050Z,11.77
2022-11-12T12:30:26.567Z,11.64
2022-11-12T12:33:16.548Z,11.31
2022-11-12T12:35:56.838Z,11.19
2022-11-12T12:39:01.302Z,11.30
2022-11-12T12:41:43.719Z,11.27
2022-11-12T12:44:12.681Z,10.80
2022-11-12T12:46:54.114Z,10.74
2022-11-12T12:49:33.100Z,10.71
2022-11-12T12:52:03.032Z,10.73
2022-11-12T12:54:41.666Z,10.79
2022-11-12T12:57:41.041Z,10.44
2022-11-12T13:00:25.827Z,10.63
2022-11-12T13:02:55.276Z,10.71
2022-11-12T13:05:42.722Z,10.62
2022-11-12T13:08:23.966Z,10.48
2022-11-12T13:10:54.627Z,10.49
2022-11-12T13:16:52.408Z,10.56
2022-11-12T13:19:35.053Z,10.68
2022-11-12T13:22:21.700Z,10.58
2022-11-12T13:25:08.845Z,10.51
2022-11-12T13:27:46.372Z,10.44
2022-11-12T13:30:14.184Z,10.37
2022-11-12T13:32:48.555Z,10.62
2022-11-12T13:35:23.683Z,10.42
2022-11-12T13:38:20.550Z,10.36
2022-11-12T13:40:58.470Z,10.34
2022-11-12T13:43:47.939Z,10.35
2022-11-12T13:46:38.889Z,10.18
2022-11-12T13:49:15.561Z,10.12
2022-11-12T13:51:50.059Z,10.25
2022-11-12T13:54:32.515Z,10.06
2022-11-12T13:57:38.071Z,10.14
2022-11-12T14:00:28.496Z,10.08
2022-11-12T14:03:04.499Z,9.85
2022-11-12T14:05:39.856Z,9.78
2022-11-12T14:08:25.130Z,9.74
2022-11-12T14:11:25.827Z,9.62
2022-11-12T14:14:00.484Z,9.75
2022-11-12T14:17:03.282Z,9.69
2022-11-12T14:19:58.882Z,9.65
2022-11-12T14:22:41.571Z,9.48
2022-11-12T14:25:18.082Z,9.43
2022-11-12T14:27:52.396Z,9.55
2022-11-12T14:30:24.664Z,9.34
2022-11-12T14:33:11.064Z,9.55
2022-11-12T14:35:40.657Z,9.58
2022-11-12T14:38:29.794Z,9.55
2022-11-12T14:41:04.077Z,9.47
2022-11-12T14:43:43.674Z,9.45
2022-11-12T14:46:42.924Z,9.45
2022-11-12T14:49:42.430Z,9.41
2022-11-12T14:52:28.125Z,9.32
2022-11-12T14:55:10.058Z,9.22
2022-11-12T14:57:40.450Z,9.28
2022-11-12T15:00:41.728Z,9.26
2022-11-12T15:03:21.342Z,9.21
2022-11-12T15:05:55.969Z,9.15
2022-11-12T15:08:39.270Z,9.05
2022-11-12T15:11:48.290Z,9.20
2022-11-12T15:14:24.674Z,9.08
2022-11-12T15:16:54.666Z,9.15
2022-11-12T15:19:29.090Z,9.17
2022-11-12T15:22:03.403Z,8.91
2022-11-12T15:24:39.275Z,8.79
2022-11-12T15:27:37.927Z,8.91
2022-11-12T15:30:28.004Z,8.89
2022-11-12T15:33:23.744Z,8.88
2022-11-12T15:36:01.026Z,8.88
2022-11-12T15:38:38.016Z,8.91
2022-11-12T15:41:07.082Z,8.89
2022-11-12T15:43:37.095Z,8.98
2022-11-12T15:46:16.487Z,8.97
2022-11-12T15:48:56.132Z,8.90
2022-11-12T15:51:24.213Z,8.73
2022-11-12T15:53:54.294Z,8.79
2022-11-12T15:56:23.233Z,8.82
2022-11-12T15:58:51.978Z,8.66
2022-11-12T16:01:21.368Z,8.80
2022-11-12T16:03:50.261Z,8.67
2022-11-12T16:06:21.025Z,8.70
2022-11-12T16:08:50.847Z,8.49
2022-11-12T16:11:40.888Z,8.62
2022-11-12T16:14:14.546Z,8.63
2022-11-12T16:16:43.605Z,8.56
2022-11-12T16:19:17.478Z,8.60
2022-11-12T16:21:46.969Z,8.46
2022-11-12T16:24:15.200Z,8.46
2022-11-12T16:26:46.456Z,8.52
2022-11-12T16:29:15.517Z,8.50
2022-11-12T16:31:48.625Z,8.38
2022-11-12T16:34:17.146Z,8.24
2022-11-12T16:36:51.064Z,8.20
2022-11-12T16:39:19.081Z,8.20
2022-11-12T16:41:48.508Z,8.23
2022-11-12T16:44:17.163Z,8.14
2022-11-12T16:46:46.278Z,8.15
2022-11-12T16:49:16.011Z,8.22
2022-11-12T16:51:45.084Z,8.24
2022-11-12T16:54:13.056Z,8.29
2022-11-12T16:56:42.105Z,8.21
2022-11-12T16:59:14.489Z,8.26
2022-11-12T17:01:44.436Z,8.15
2022-11-12T17:04:13.247Z,8.24
2022-11-12T17:06:44.360Z,8.27
2022-11-12T17:09:13.682Z,8.26
2022-11-12T17:11:43.157Z,8.33
2022-11-12T17:14:11.360Z,8.35
2022-11-12T17:16:40.751Z,8.30
2022-11-12T17:19:10.459Z,8.44
2022-11-12T17:21:39.970Z,8.37
2022-11-12T17:24:09.010Z,8.41
2022-11-12T17:26:38.342Z,8.58
2022-11-12T17:29:08.456Z,8.63
2022-11-12T17:31:37.153Z,8.65
2022-11-12T17:34:10.567Z,8.60
2022-11-12T17:36:43.534Z,8.57
2022-11-12T17:39:13.746Z,8.53
2022-11-12T17:41:43.920Z,8.62
2022-11-12T17:44:19.046Z,8.79
2022-11-12T17:46:49.422Z,8.62
2022-11-12T17:49:20.277Z,8.77
2022-11-12T17:51:49.996Z,8.86
2022-11-12T17:54:19.278Z,8.87
2022-11-12T17:56:48.148Z,8.85
2022-11-12T17:59:16.594Z,8.74
2022-11-12T18:01:46.663Z,8.75
2022-11-12T18:04:15.187Z,8.78
2022-11-12T18:06:43.679Z,8.76
2022-11-12T18:09:18.288Z,8.80
2022-11-12T18:11:49.316Z,8.72
2022-11-12T18:14:17.301Z,8.62
2022-11-12T18:16:48.717Z,8.59
2022-11-12T18:19:18.438Z,8.50
2022-11-12T18:21:47.380Z,8.51
2022-11-12T18:24:17.243Z,8.52
2022-11-12T18:26:45.222Z,8.55
2022-11-12T18:29:15.099Z,8.53
2022-11-12T18:31:43.823Z,8.51
2022-11-12T18:34:15.487Z,8.42
2022-11-12T18:36:46.060Z,8.55
2022-11-12T18:39:15.031Z,8.63
2022-11-12T18:41:45.087Z,8.67
2022-11-12T18:44:13.160Z,8.56
2022-11-12T18:46:42.006Z,8.54
2022-11-12T18:49:10.071Z,8.37
2022-11-12T18:51:40.068Z,8.35
2022-11-12T18:54:08.495Z,8.29
2022-11-12T18:56:38.470Z,8.17
2022-11-12T18:59:07.250Z,8.24
2022-11-12T19:01:36.183Z,8.38
2022-11-12T19:04:06.620Z,8.31
2022-11-12T19:06:35.172Z,8.34
2022-11-12T19:09:04.480Z,8.32
2022-11-12T19:11:33.294Z,8.39
2022-11-12T19:14:04.470Z,8.27
2022-11-12T19:16:33.875Z,8.37
2022-11-12T19:19:02.876Z,8.32
2022-11-12T19:21:33.331Z,8.32
2022-11-12T19:24:04.615Z,8.32
2022-11-12T19:26:36.476Z,8.13
2022-11-12T19:29:05.063Z,8.21
2022-11-12T19:31:34.849Z,8.23
2022-11-12T19:34:03.131Z,8.24
2022-11-12T19:36:31.992Z,8.17
2022-11-12T19:39:02.775Z,8.18
2022-11-12T19:41:31.239Z,8.37
2022-11-12T19:44:03.471Z,8.27
2022-11-12T19:46:32.780Z,8.39
2022-11-12T19:49:01.847Z,8.26
2022-11-12T19:51:31.482Z,8.21
2022-11-12T19:54:02.232Z,8.21
2022-11-12T19:56:34.036Z,8.12
2022-11-12T19:59:02.234Z,8.10
2022-11-12T20:01:31.144Z,8.09
2022-11-12T20:03:59.317Z,8.10
2022-11-12T20:06:30.020Z,8.06
2022-11-12T20:08:59.445Z,7.97
2022-11-12T20:11:29.507Z,7.91
2022-11-12T20:13:58.157Z,7.97
2022-11-12T20:16:27.645Z,7.95
2022-11-12T20:18:56.707Z,7.95
2022-11-12T20:21:26.578Z,8.05
2022-11-12T20:23:55.248Z,7.98
2022-11-12T20:26:25.417Z,8.01
2022-11-12T20:28:54.499Z,7.99
2022-11-12T20:31:23.187Z,7.98
2022-11-12T20:33:52.412Z,8.01
2022-11-12T20:36:23.230Z,8.10
2022-11-12T20:38:53.633Z,8.01
2022-11-12T20:41:27.238Z,7.80
2022-11-12T20:44:00.533Z,7.88
2022-11-12T20:46:30.118Z,7.95
2022-11-12T20:48:59.108Z,7.92
2022-11-12T20:51:33.863Z,7.84
2022-11-12T20:54:03.762Z,7.84
2022-11-12T20:56:32.841Z,7.96
2022-11-12T20:59:01.580Z,7.96
2022-11-12T21:01:31.306Z,7.93
2022-11-12T21:04:00.044Z,7.86
2022-11-12T21:06:30.184Z,7.97
2022-11-12T21:09:00.134Z,7.99
2022-11-12T21:11:29.491Z,7.96
2022-11-12T21:14:00.162Z,8.08
2022-11-12T21:16:29.581Z,8.16
2022-11-12T21:19:02.673Z,8.26
2022-11-12T21:21:32.367Z,8.09
2022-11-12T21:24:04.846Z,8.19
2022-11-12T21:26:35.798Z,8.15
2022-11-12T21:29:04.816Z,8.25
2022-11-12T21:31:33.364Z,8.04
2022-11-12T21:34:07.278Z,8.11
2022-11-12T21:36:36.245Z,8.16
2022-11-12T21:39:05.782Z,8.18
2022-11-12T21:41:34.184Z,8.16
2022-11-12T21:44:03.313Z,8.17
2022-11-12T21:46:32.137Z,8.24
2022-11-12T21:49:01.003Z,8.12
2022-11-12T21:51:31.757Z,8.11
2022-11-12T21:54:06.752Z,8.15
2022-11-12T21:56:40.376Z,8.17
2022-11-12T21:59:08.086Z,8.16
2022-11-12T22:01:38.418Z,7.99
2022-11-12T22:04:08.414Z,8.17
2022-11-12T22:06:39.060Z,8.18
2022-11-12T22:09:07.359Z,8.19
2022-11-12T22:11:36.356Z,8.30
2022-11-12T22:14:04.287Z,8.29
2022-11-12T22:16:33.843Z,8.22
2022-11-12T22:19:03.256Z,8.16
2022-11-12T22:21:39.427Z,8.18
2022-11-12T22:24:09.896Z,8.19
2022-11-12T22:26:39.021Z,8.13
2022-11-12T22:29:07.058Z,8.10
2022-11-12T22:31:37.849Z,8.18
2022-11-12T22:34:08.247Z,8.14
2022-11-12T22:36:36.211Z,8.14
2022-11-12T22:39:05.919Z,8.10
2022-11-12T22:41:35.275Z,8.12
2022-11-12T22:44:04.220Z,8.03
2022-11-12T22:46:37.817Z,8.21
2022-11-12T22:49:06.245Z,8.18
2022-11-12T22:51:36.360Z,8.13
2022-11-12T22:54:08.069Z,8.19
2022-11-12T22:56:39.933Z,8.25
2022-11-12T22:59:11.278Z,8.32
2022-11-12T23:01:43.320Z,8.19
2022-11-12T23:04:12.830Z,8.24
2022-11-12T23:06:41.189Z,8.13
2022-11-12T23:09:15.434Z,8.24
2022-11-12T23:11:43.535Z,8.20
2022-11-12T23:14:12.894Z,8.21
2022-11-12T23:16:41.053Z,8.17
2022-11-12T23:19:09.946Z,8.18
2022-11-12T23:21:39.123Z,8.07
2022-11-12T23:24:07.879Z,8.17
2022-11-12T23:26:36.122Z,8.20
2022-11-12T23:29:03.813Z,8.22
2022-11-12T23:31:36.471Z,8.16
2022-11-12T23:34:05.785Z,8.13
2022-11-12T23:36:35.622Z,8.01
2022-11-12T23:39:04.007Z,8.04
2022-11-12T23:41:34.022Z,8.10
2022-11-12T23:44:02.190Z,8.12
2022-11-12T23:46:31.056Z,8.04
2022-11-12T23:48:59.897Z,8.17
2022-11-12T23:51:31.248Z,8.12
2022-11-12T23:54:00.044Z,8.11
2022-11-12T23:56:32.350Z,8.06
2022-11-12T23:59:00.129Z,8.01
